This is the latest recevied weather packets stored in our database for station/object N1OTX. If no packets are shown the sender has not sent any weather packets the latest 10 day(s).
| Time | Temp. | Humidity | Pressure | Rain* | Wind** | Luminosity | Snow |
|---|---|---|---|---|---|---|---|
| 1777529750 | 7.22° C | 99% | 1009.9 hPa | 0 mm | - | 0 W/m² | - |
| 1777529430 | 7.22° C | 99% | 1009.9 hPa | 0 mm | - | 0 W/m² | - |
| 1777526431 | 7.22° C | 99% | 1010.6 hPa | 0 mm | - | 0 W/m² | - |
| 1777525530 | 7.22° C | 99% | 1010.7 hPa | 0 mm | - | 0 W/m² | - |
| 1777524331 | 7.22° C | 99% | 1010.9 hPa | 0 mm | - | 0 W/m² | - |
| 1777523752 | 7.22° C | 99% | 1010.9 hPa | 0 mm | - | 0 W/m² | - |
| 1777518331 | 7.22° C | 98% | 1011.9 hPa | 0 mm | - | 0 W/m² | - |
| 1777516530 | 7.22° C | 97% | 1012.5 hPa | 0 mm | - | 0 W/m² | - |
| 1777515631 | 7.22° C | 96% | 1012.4 hPa | 0 mm | - | 0 W/m² | - |
| 1777513530 | 7.22° C | 94% | 1013 hPa | 0 mm | - | 0 W/m² | - |
| 1777512630 | 7.78° C | 92% | 1013.1 hPa | 0 mm | - | 0 W/m² | - |
| 1777510531 | 7.78° C | 90% | 1013.2 hPa | 0 mm | - | 0 W/m² | - |
| 1777508730 | 7.78° C | 89% | 1013 hPa | 0 mm | - | 0 W/m² | - |
| 1777505431 | 8.33° C | 86% | 1013.3 hPa | 0 mm | - | 4 W/m² | - |
| 1777502432 | 8.89° C | 82% | 1013.3 hPa | 0 mm | - | 30 W/m² | - |
| 1777501872 | 9.44° C | 81% | 1013.3 hPa | 0 mm | - | 38 W/m² | - |
| 1777500071 | 10° C | 78% | 1013.5 hPa | 0 mm | - | 79 W/m² | - |
| 1777494630 | 11.67° C | 73% | 1013.6 hPa | 0 mm | - | 253 W/m² | - |
| 1777494030 | 12.22° C | 71% | 1013.8 hPa | 0 mm | - | 255 W/m² | - |
| 1777493431 | 12.78° C | 71% | 1014.1 hPa | 0 mm | - | 231 W/m² | - |
| 1777491030 | 13.33° C | 68% | 1014.3 hPa | 0 mm | - | 278 W/m² | - |
| 1777490151 | 14.44° C | 68% | 1014.7 hPa | 0 mm | - | 487 W/m² | - |
| 1777488350 | 14.44° C | 66% | 1014.9 hPa | 0 mm | - | 512 W/m² | - |
| 1777487732 | 14.44° C | 68% | 1015 hPa | 0 mm | - | 656 W/m² | - |
| 1777487131 | 13.89° C | 68% | 1015.1 hPa | 0 mm | - | 752 W/m² | - |
* Rain latest hour (hover to see other rain measurements)
** Current wind speed in m/s (hover to see current wind gust speed)